Time;durP1;ratioP1;P1;durP2;ratioP2;P2;SDS_P1;SDS_P2;PMS_P1;PMS_P2;Temp;Humidity;BMP_temperature;BMP_pressure;BME280_temperature;BME280_humidity;BME280_pressure;Samples;Min_cycle;Max_cycle;Signal;HPM_P1;HPM_P2
2022/01/01 00:02:25;;;;;;;63.45;24.17;;;10.70;99.90;;;;;;5044841;28;20103;-66
2022/01/01 00:04:50;;;;;;;54.88;22.00;;;10.70;99.90;;;;;;5043202;28;20044;-66
2022/01/01 00:07:17;;;;;;;53.80;21.45;;;10.70;99.90;;;;;;5048330;28;20128;-67
2022/01/01 00:09:43;;;;;;;56.67;22.23;;;10.70;99.90;;;;;;5037016;28;20481;-67
2022/01/01 00:12:10;;;;;;;56.75;21.30;;;10.80;99.90;;;;;;5022662;28;20530;-66
2022/01/01 00:14:37;;;;;;;56.83;20.00;;;10.80;99.90;;;;;;5036964;28;20052;-66
2022/01/01 00:17:03;;;;;;;54.45;20.65;;;10.80;99.90;;;;;;5035149;28;20041;-66
2022/01/01 00:19:31;;;;;;;63.58;23.67;;;10.80;99.90;;;;;;5039312;28;20045;-67
2022/01/01 00:21:57;;;;;;;54.47;22.20;;;10.80;99.90;;;;;;5038974;28;20377;-66
2022/01/01 00:24:23;;;;;;;57.05;23.98;;;10.80;99.90;;;;;;5038809;28;20041;-68
2022/01/01 00:26:48;;;;;;;56.83;23.17;;;10.70;99.90;;;;;;5022716;28;20041;-66
2022/01/01 00:29:14;;;;;;;65.18;23.38;;;10.70;99.90;;;;;;5041113;28;20036;-67
2022/01/01 00:31:40;;;;;;;62.38;25.70;;;10.70;99.90;;;;;;5051754;28;20060;-68
2022/01/01 00:34:05;;;;;;;76.78;29.05;;;10.70;99.90;;;;;;5029655;28;20118;-66
2022/01/01 00:36:31;;;;;;;72.30;28.67;;;10.70;99.90;;;;;;5033804;28;20040;-66
2022/01/01 00:38:57;;;;;;;74.57;28.38;;;10.70;99.90;;;;;;5041124;28;20083;-66
2022/01/01 00:41:22;;;;;;;69.28;26.98;;;10.70;99.90;;;;;;5036827;28;20060;-66
2022/01/01 00:43:48;;;;;;;66.47;26.95;;;10.70;99.90;;;;;;5035733;28;20049;-67
2022/01/01 00:46:14;;;;;;;72.35;27.77;;;10.70;99.90;;;;;;5038565;28;20049;-66
2022/01/01 00:48:39;;;;;;;71.93;29.90;;;10.60;99.90;;;;;;5035956;28;20504;-66
2022/01/01 00:51:05;;;;;;;70.85;28.73;;;10.70;99.90;;;;;;5037961;28;20037;-66
2022/01/01 00:53:30;;;;;;;71.20;29.50;;;10.70;99.90;;;;;;5038558;28;20037;-67
2022/01/01 00:55:56;;;;;;;69.82;28.83;;;10.60;99.90;;;;;;5038354;28;20056;-65
2022/01/01 00:58:22;;;;;;;74.57;29.15;;;10.60;99.90;;;;;;5046725;28;20041;-66
2022/01/01 01:00:47;;;;;;;69.38;29.13;;;10.60;99.90;;;;;;5035663;28;20037;-66
2022/01/01 01:03:15;;;;;;;77.63;28.85;;;10.60;99.90;;;;;;5048950;28;20500;-66
2022/01/01 01:05:43;;;;;;;74.78;27.85;;;10.60;99.90;;;;;;5033017;28;20044;-66
2022/01/01 01:08:10;;;;;;;75.22;27.90;;;10.60;99.90;;;;;;5033858;28;20138;-66
2022/01/01 01:10:37;;;;;;;70.78;26.83;;;10.60;99.90;;;;;;5039433;28;20044;-67
2022/01/01 01:13:04;;;;;;;69.30;25.38;;;10.60;99.90;;;;;;5042991;28;20061;-66
2022/01/01 01:15:30;;;;;;;63.75;23.77;;;10.60;99.90;;;;;;5029715;28;20068;-66
2022/01/01 01:17:57;;;;;;;67.82;24.88;;;10.60;99.90;;;;;;5019435;28;20120;-65
2022/01/01 01:20:23;;;;;;;58.00;23.17;;;10.60;99.90;;;;;;5030772;28;20076;-67
2022/01/01 01:22:49;;;;;;;62.58;23.33;;;10.60;99.90;;;;;;5039782;28;20053;-66
2022/01/01 01:25:15;;;;;;;57.42;21.95;;;10.70;99.90;;;;;;5040744;28;20048;-66
2022/01/01 01:27:41;;;;;;;53.55;21.30;;;10.60;99.90;;;;;;5032595;28;20038;-66
2022/01/01 01:30:09;;;;;;;58.10;20.70;;;10.60;99.90;;;;;;5035152;28;20367;-66
2022/01/01 01:32:36;;;;;;;56.85;19.20;;;10.60;99.90;;;;;;5045187;28;20171;-65
2022/01/01 01:35:03;;;;;;;52.63;20.42;;;10.70;99.90;;;;;;5033050;28;20064;-66
2022/01/01 01:37:29;;;;;;;57.13;19.52;;;10.60;99.90;;;;;;5037515;28;20045;-67
2022/01/01 01:39:58;;;;;;;56.80;19.73;;;10.70;99.90;;;;;;5040365;28;20469;-67
2022/01/01 01:42:26;;;;;;;55.80;20.67;;;10.70;99.90;;;;;;5020498;28;20430;-66
2022/01/01 01:44:53;;;;;;;54.60;19.40;;;10.70;99.90;;;;;;5016311;28;20036;-67
2022/01/01 01:47:31;;;;;;;46.65;19.08;;;10.60;99.90;;;;;;5012819;28;20696;-66
2022/01/01 01:49:59;;;;;;;60.78;20.25;;;10.60;99.90;;;;;;5015528;28;20044;-67
2022/01/01 01:52:30;;;;;;;59.30;22.00;;;10.60;99.90;;;;;;5032384;28;20442;-68
2022/01/01 01:54:56;;;;;;;60.03;24.52;;;10.60;99.90;;;;;;5044957;28;20033;-67
2022/01/01 01:57:22;;;;;;;71.03;27.30;;;10.60;99.90;;;;;;5040244;28;20052;-69
2022/01/01 01:59:50;;;;;;;73.82;34.50;;;10.70;99.90;;;;;;5042030;28;20107;-66
2022/01/01 02:02:16;;;;;;;73.60;28.40;;;10.70;99.90;;;;;;5043062;28;20052;-67
2022/01/01 02:04:41;;;;;;;70.10;29.35;;;10.70;99.90;;;;;;5041739;28;20406;-66
2022/01/01 02:07:10;;;;;;;72.60;29.73;;;10.70;99.90;;;;;;5037935;28;20441;-66
2022/01/01 02:09:36;;;;;;;81.95;31.38;;;10.70;99.90;;;;;;5039534;28;20128;-66
2022/01/01 02:12:07;;;;;;;83.35;33.90;;;10.70;99.90;;;;;;5012681;28;20033;-68
2022/01/01 02:15:06;;;;;;;83.25;34.17;;;10.70;99.90;;;;;;5042512;28;20053;-67
2022/01/01 02:17:32;;;;;;;91.22;35.50;;;10.70;99.90;;;;;;5030685;28;20033;-67
2022/01/01 02:20:03;;;;;;;85.70;35.95;;;10.60;99.90;;;;;;5044046;28;20029;-66
2022/01/01 02:23:00;;;;;;;91.45;36.20;;;10.60;99.90;;;;;;5030065;28;20091;-67
2022/01/01 02:25:25;;;;;;;93.97;36.45;;;10.60;99.90;;;;;;5028543;28;20053;-67
2022/01/01 02:27:51;;;;;;;86.88;36.00;;;10.60;99.90;;;;;;5035830;28;20060;-67
2022/01/01 02:30:17;;;;;;;91.75;36.25;;;10.60;99.90;;;;;;5043849;28;20091;-67
2022/01/01 02:32:43;;;;;;;86.30;36.08;;;10.60;99.90;;;;;;5028723;28;20037;-68
2022/01/01 02:35:11;;;;;;;96.53;37.65;;;10.60;99.90;;;;;;5029621;28;20041;-67
2022/01/01 02:37:38;;;;;;;89.55;38.20;;;10.60;99.90;;;;;;5029117;28;20057;-69
2022/01/01 02:40:04;;;;;;;96.22;38.35;;;10.60;99.90;;;;;;5046941;28;20029;-67
2022/01/01 02:42:30;;;;;;;97.85;38.08;;;10.60;99.90;;;;;;5028886;28;20072;-67
2022/01/01 02:44:58;;;;;;;104.13;39.28;;;10.60;99.90;;;;;;5034570;28;20455;-67
2022/01/01 02:47:23;;;;;;;89.00;37.78;;;10.60;99.90;;;;;;5031647;28;20037;-67
2022/01/01 02:49:49;;;;;;;89.65;38.55;;;10.60;99.90;;;;;;5044771;28;20568;-67
2022/01/01 02:52:14;;;;;;;88.78;37.78;;;10.60;99.90;;;;;;5016546;28;20033;-66
2022/01/01 02:54:40;;;;;;;89.95;38.42;;;10.50;99.90;;;;;;5039331;28;20064;-67
2022/01/01 02:57:05;;;;;;;99.82;39.58;;;10.60;99.90;;;;;;5012075;28;20052;-67
2022/01/01 02:59:31;;;;;;;102.88;38.72;;;10.50;99.90;;;;;;5032120;28;20037;-66
2022/01/01 03:01:56;;;;;;;91.20;40.35;;;10.50;99.90;;;;;;5033614;28;20056;-67
2022/01/01 03:04:22;;;;;;;95.53;38.33;;;10.50;99.90;;;;;;5039207;28;20071;-67
2022/01/01 03:06:53;;;;;;;95.75;39.45;;;10.50;99.90;;;;;;5045827;28;20043;-67
2022/01/01 03:09:20;;;;;;;101.18;40.40;;;10.60;99.90;;;;;;5031539;28;20053;-67
2022/01/01 03:11:45;;;;;;;94.13;38.53;;;10.50;99.90;;;;;;5041192;28;20048;-66
2022/01/01 03:14:17;;;;;;;88.55;39.85;;;10.60;99.90;;;;;;5038126;28;20050;-67
2022/01/01 03:16:45;;;;;;;92.30;37.55;;;10.60;99.90;;;;;;5027317;28;20099;-68
2022/01/01 03:19:11;;;;;;;94.88;39.40;;;10.60;99.90;;;;;;5029027;28;20493;-66
2022/01/01 03:21:36;;;;;;;101.97;39.22;;;10.50;99.90;;;;;;5040555;28;20034;-66
2022/01/01 03:24:02;;;;;;;98.43;38.40;;;10.50;99.90;;;;;;5038538;28;20039;-66
2022/01/01 03:26:28;;;;;;;90.75;39.38;;;10.50;99.90;;;;;;5038085;28;20040;-66
2022/01/01 03:28:53;;;;;;;97.28;39.53;;;10.60;99.90;;;;;;5045899;28;20041;-66
2022/01/01 03:31:19;;;;;;;102.18;42.83;;;10.60;99.90;;;;;;5031963;28;20067;-66
2022/01/01 03:33:45;;;;;;;97.45;40.95;;;10.60;99.90;;;;;;5028652;28;20053;-66
2022/01/01 03:36:10;;;;;;;102.65;40.42;;;10.50;99.90;;;;;;5031417;28;20037;-66
2022/01/01 03:38:36;;;;;;;98.38;40.88;;;10.60;99.90;;;;;;5039707;28;20055;-66
2022/01/01 03:41:02;;;;;;;100.68;39.97;;;10.60;99.90;;;;;;5045893;28;20178;-66
2022/01/01 03:43:27;;;;;;;90.10;40.08;;;10.60;99.90;;;;;;5040335;28;20072;-67
2022/01/01 03:45:53;;;;;;;100.05;41.20;;;10.60;99.90;;;;;;5033874;28;20432;-67
2022/01/01 03:48:18;;;;;;;94.90;40.47;;;10.60;99.90;;;;;;5041585;28;20045;-66
2022/01/01 03:50:44;;;;;;;95.63;40.40;;;10.60;99.90;;;;;;5043073;28;20026;-66
2022/01/01 03:53:10;;;;;;;96.75;41.63;;;10.60;99.90;;;;;;5043321;28;20039;-66
2022/01/01 03:55:36;;;;;;;99.55;42.13;;;10.60;99.90;;;;;;5029288;28;20385;-66
2022/01/01 03:58:02;;;;;;;106.93;43.58;;;10.60;99.90;;;;;;5031353;28;20112;-68
2022/01/01 04:00:28;;;;;;;98.82;43.95;;;10.60;99.90;;;;;;5037826;28;20045;-67
2022/01/01 04:02:53;;;;;;;95.53;43.50;;;10.60;99.90;;;;;;5042878;28;20041;-66
2022/01/01 04:05:19;;;;;;;99.15;43.83;;;10.60;99.90;;;;;;5014373;28;20041;-66
2022/01/01 04:07:44;;;;;;;106.63;44.85;;;10.60;99.90;;;;;;5034816;28;20643;-65
2022/01/01 04:10:10;;;;;;;103.25;44.53;;;10.60;99.90;;;;;;5031431;28;20477;-69
2022/01/01 04:12:36;;;;;;;104.38;45.97;;;10.60;99.90;;;;;;5028201;28;20113;-66
2022/01/01 04:15:03;;;;;;;103.40;45.60;;;10.60;99.90;;;;;;5033246;28;20053;-67
2022/01/01 04:17:29;;;;;;;110.13;46.53;;;10.60;99.90;;;;;;5027882;28;20347;-66
2022/01/01 04:19:54;;;;;;;111.30;49.85;;;10.60;99.90;;;;;;5027011;28;20107;-66
2022/01/01 04:22:20;;;;;;;116.90;50.15;;;10.60;99.90;;;;;;5043212;28;20045;-66
2022/01/01 04:24:45;;;;;;;109.88;50.53;;;10.60;99.90;;;;;;5037163;28;20037;-69
2022/01/01 04:27:11;;;;;;;119.20;52.42;;;10.60;99.90;;;;;;5042290;28;20056;-66
2022/01/01 04:29:38;;;;;;;116.75;52.17;;;10.60;99.90;;;;;;5041590;28;20049;-66
2022/01/01 04:32:05;;;;;;;123.93;53.60;;;10.60;99.90;;;;;;5026433;28;20096;-66
2022/01/01 04:34:30;;;;;;;119.32;54.80;;;10.60;99.90;;;;;;5041658;28;20140;-66
2022/01/01 04:37:06;;;;;;;117.85;54.03;;;10.60;99.90;;;;;;5046869;28;20127;-66
2022/01/01 04:39:32;;;;;;;127.18;57.08;;;10.60;99.90;;;;;;5029987;28;20037;-66
2022/01/01 04:41:57;;;;;;;132.48;57.25;;;10.60;99.90;;;;;;5042573;28;20060;-68
2022/01/01 04:44:23;;;;;;;123.97;57.10;;;10.60;99.90;;;;;;5030808;28;20107;-66
2022/01/01 04:46:49;;;;;;;124.57;55.33;;;10.60;99.90;;;;;;5030074;28;20059;-66
2022/01/01 04:49:14;;;;;;;115.10;54.30;;;10.60;99.90;;;;;;5030577;28;20059;-67
2022/01/01 04:51:40;;;;;;;110.40;53.33;;;10.60;99.90;;;;;;5043732;28;20119;-67
2022/01/01 04:54:13;;;;;;;118.75;54.20;;;10.60;99.90;;;;;;5049436;28;20087;-68
2022/01/01 04:56:43;;;;;;;118.25;54.05;;;10.60;99.90;;;;;;5049912;28;20049;-66
2022/01/01 04:59:09;;;;;;;112.15;52.95;;;10.60;99.90;;;;;;5042115;28;20052;-66
2022/01/01 05:01:34;;;;;;;126.30;52.40;;;10.60;99.90;;;;;;5046016;28;20041;-67
2022/01/01 05:04:00;;;;;;;115.95;53.97;;;10.70;99.90;;;;;;5035159;28;20349;-66
2022/01/01 05:06:26;;;;;;;120.60;52.40;;;10.60;99.90;;;;;;5044732;28;20445;-66
2022/01/01 05:08:52;;;;;;;113.32;51.28;;;10.60;99.90;;;;;;5038017;28;20540;-66
2022/01/01 05:11:17;;;;;;;112.60;52.42;;;10.60;99.90;;;;;;5051307;28;20045;-66
2022/01/01 05:13:43;;;;;;;124.68;53.33;;;10.60;99.90;;;;;;5030724;28;20409;-66
2022/01/01 05:16:14;;;;;;;113.45;50.85;;;10.60;99.90;;;;;;5059974;28;20068;-66
2022/01/01 05:18:39;;;;;;;125.68;54.05;;;10.60;99.90;;;;;;5031710;28;21890;-67
2022/01/01 05:21:05;;;;;;;120.32;53.90;;;10.70;99.90;;;;;;5032961;28;20128;-66
2022/01/01 05:23:30;;;;;;;122.95;54.05;;;10.60;99.90;;;;;;5031515;28;20140;-66
2022/01/01 05:25:56;;;;;;;110.13;52.47;;;10.70;99.90;;;;;;5034800;28;20086;-66
2022/01/01 05:28:21;;;;;;;117.15;54.08;;;10.70;99.90;;;;;;5047794;28;20033;-66
2022/01/01 05:30:47;;;;;;;128.68;52.90;;;10.70;99.90;;;;;;5043190;28;20048;-67
2022/01/01 05:33:12;;;;;;;114.60;51.72;;;10.70;99.90;;;;;;5035329;28;20514;-66
2022/01/01 05:35:38;;;;;;;114.75;52.00;;;10.70;99.90;;;;;;5012058;28;20493;-66
2022/01/01 05:38:03;;;;;;;113.45;51.90;;;10.70;99.90;;;;;;5032464;28;20037;-66
2022/01/01 05:40:30;;;;;;;122.55;52.88;;;10.70;99.90;;;;;;5030908;28;20090;-66
2022/01/01 05:42:56;;;;;;;127.75;53.83;;;10.70;99.90;;;;;;5042655;28;20065;-67
2022/01/01 05:45:21;;;;;;;118.70;50.63;;;10.70;99.90;;;;;;5060471;28;20777;-67
2022/01/01 05:47:47;;;;;;;113.28;52.65;;;10.70;99.90;;;;;;5044771;28;20140;-66
2022/01/01 05:50:13;;;;;;;116.35;51.22;;;10.70;99.90;;;;;;5029392;28;20074;-66
2022/01/01 05:52:38;;;;;;;118.57;50.47;;;10.80;99.90;;;;;;5016354;28;20048;-67
2022/01/01 05:55:04;;;;;;;109.22;47.20;;;10.70;99.90;;;;;;5040841;28;20108;-66
2022/01/01 05:57:30;;;;;;;109.35;47.28;;;10.70;99.90;;;;;;5040013;28;20041;-66
2022/01/01 05:59:55;;;;;;;109.35;43.28;;;10.80;99.90;;;;;;5045514;28;20041;-66
2022/01/01 06:02:21;;;;;;;106.88;42.90;;;10.80;99.90;;;;;;5021928;28;20036;-68
2022/01/01 06:04:46;;;;;;;101.30;42.22;;;10.70;99.90;;;;;;5047110;28;20415;-68
2022/01/01 06:07:12;;;;;;;101.47;40.97;;;10.80;99.90;;;;;;5035461;28;20056;-69
2022/01/01 06:09:37;;;;;;;96.95;40.28;;;10.70;99.90;;;;;;5028232;28;20042;-66
2022/01/01 06:12:03;;;;;;;100.13;38.83;;;10.70;99.90;;;;;;5022873;28;20120;-67
2022/01/01 06:14:29;;;;;;;97.45;38.30;;;10.70;99.90;;;;;;5041218;28;20187;-67
2022/01/01 06:16:54;;;;;;;98.35;39.47;;;10.80;99.90;;;;;;5027730;28;20436;-67
2022/01/01 06:19:20;;;;;;;97.35;37.55;;;10.70;99.90;;;;;;5048051;28;20041;-67
2022/01/01 06:21:45;;;;;;;89.75;36.25;;;10.70;99.90;;;;;;5051882;28;20479;-68
2022/01/01 06:24:11;;;;;;;96.38;35.80;;;10.70;99.90;;;;;;5041008;28;20037;-68
2022/01/01 06:26:37;;;;;;;98.65;36.65;;;10.70;99.90;;;;;;5051342;28;20411;-67
2022/01/01 06:29:02;;;;;;;99.60;36.42;;;10.70;99.90;;;;;;5034360;28;20454;-67
2022/01/01 06:31:28;;;;;;;88.78;33.50;;;10.70;99.90;;;;;;5045891;28;20060;-69
2022/01/01 06:33:54;;;;;;;84.82;33.25;;;10.80;99.90;;;;;;5045519;28;20322;-68
2022/01/01 06:36:19;;;;;;;86.18;32.92;;;10.80;99.90;;;;;;5028914;28;20111;-67
2022/01/01 06:38:45;;;;;;;98.13;35.15;;;10.80;99.90;;;;;;5032007;28;20046;-67
2022/01/01 06:41:11;;;;;;;92.25;32.58;;;10.80;99.90;;;;;;5030071;28;20040;-66
2022/01/01 06:43:38;;;;;;;87.40;32.00;;;10.80;99.90;;;;;;5027603;28;20037;-66
2022/01/01 06:46:04;;;;;;;87.68;32.45;;;10.80;99.90;;;;;;5022342;28;20472;-66
2022/01/01 06:48:29;;;;;;;83.53;31.20;;;10.80;99.90;;;;;;5039032;28;20120;-67
2022/01/01 06:50:55;;;;;;;87.97;29.55;;;10.80;99.90;;;;;;5028162;28;20120;-66
2022/01/01 06:53:21;;;;;;;90.03;30.00;;;10.80;99.90;;;;;;5031511;28;20045;-66
2022/01/01 06:55:46;;;;;;;80.10;28.20;;;10.80;99.90;;;;;;5035854;28;20095;-67
2022/01/01 06:58:12;;;;;;;84.05;28.30;;;10.80;99.90;;;;;;5038213;28;20033;-66
2022/01/01 07:00:37;;;;;;;81.22;28.92;;;10.80;99.90;;;;;;5032393;28;20083;-66
2022/01/01 07:03:04;;;;;;;75.18;26.55;;;10.90;99.90;;;;;;5039511;28;20095;-66
2022/01/01 07:05:29;;;;;;;79.00;26.85;;;10.80;99.90;;;;;;5044524;28;20553;-68
2022/01/01 07:07:55;;;;;;;90.50;27.40;;;10.90;99.90;;;;;;5039787;28;20124;-66
2022/01/01 07:10:21;;;;;;;78.30;25.70;;;10.90;99.90;;;;;;5045071;28;20041;-68
2022/01/01 07:12:47;;;;;;;82.00;26.13;;;10.90;99.90;;;;;;5032144;28;20053;-66
2022/01/01 07:15:15;;;;;;;76.95;26.13;;;10.90;99.90;;;;;;5030564;28;20033;-66
2022/01/01 07:17:41;;;;;;;83.15;27.13;;;10.90;99.90;;;;;;5030229;28;20494;-66
2022/01/01 07:20:07;;;;;;;80.03;28.20;;;11.00;99.90;;;;;;5039740;28;20036;-66
2022/01/01 07:22:37;;;;;;;78.72;26.65;;;11.00;99.90;;;;;;5038546;28;20219;-66
2022/01/01 07:25:03;;;;;;;82.60;26.63;;;11.00;99.90;;;;;;5035897;28;20032;-66
2022/01/01 07:27:29;;;;;;;75.82;26.77;;;11.00;99.90;;;;;;5029774;28;20134;-66
2022/01/01 07:29:55;;;;;;;79.78;26.40;;;11.00;99.90;;;;;;5044137;28;20041;-67
2022/01/01 07:32:20;;;;;;;73.55;25.98;;;11.00;99.90;;;;;;5029414;28;20136;-67
2022/01/01 07:34:46;;;;;;;73.13;25.60;;;11.10;99.90;;;;;;5031887;28;20468;-66
2022/01/01 07:37:11;;;;;;;76.43;26.55;;;11.00;99.90;;;;;;5027230;28;20045;-66
2022/01/01 07:39:37;;;;;;;78.82;26.60;;;11.10;99.90;;;;;;5033618;28;20090;-67
2022/01/01 07:42:02;;;;;;;81.70;27.40;;;11.10;99.90;;;;;;5036299;28;20041;-66
2022/01/01 07:44:28;;;;;;;83.85;26.70;;;11.10;99.90;;;;;;5034147;28;20461;-67
2022/01/01 07:46:55;;;;;;;79.93;26.98;;;11.10;99.90;;;;;;5034381;28;20148;-66
2022/01/01 07:49:21;;;;;;;73.70;26.30;;;11.10;99.90;;;;;;5037879;28;20045;-67
2022/01/01 07:51:46;;;;;;;83.07;26.83;;;11.10;99.90;;;;;;5043200;28;20044;-67
2022/01/01 07:54:12;;;;;;;74.80;26.23;;;11.10;99.90;;;;;;5028954;28;20038;-66
2022/01/01 07:56:37;;;;;;;69.38;25.88;;;11.20;99.90;;;;;;5035800;28;20203;-67
2022/01/01 07:59:03;;;;;;;72.15;24.98;;;11.20;99.90;;;;;;5037886;28;20254;-66
2022/01/01 08:01:28;;;;;;;74.15;25.00;;;11.20;99.90;;;;;;5051485;28;20052;-66
2022/01/01 08:04:01;;;;;;;72.68;25.52;;;11.20;99.90;;;;;;5014730;28;20029;-66
2022/01/01 08:06:27;;;;;;;67.43;26.42;;;11.20;99.90;;;;;;5012575;28;20334;-66
2022/01/01 08:08:52;;;;;;;60.75;24.35;;;11.20;99.90;;;;;;5034989;28;20049;-67
2022/01/01 08:11:18;;;;;;;69.30;24.58;;;11.20;99.90;;;;;;5043351;28;20032;-67
2022/01/01 08:13:43;;;;;;;66.40;24.25;;;11.20;99.90;;;;;;5045525;28;20574;-66
2022/01/01 08:16:09;;;;;;;69.30;24.98;;;11.30;99.90;;;;;;5047596;28;20492;-66
2022/01/01 08:18:34;;;;;;;73.65;24.60;;;11.30;99.90;;;;;;5045000;28;20037;-66
2022/01/01 08:21:00;;;;;;;63.42;24.73;;;11.30;99.90;;;;;;5031340;28;20052;-69
2022/01/01 08:23:26;;;;;;;56.33;24.35;;;11.30;99.90;;;;;;5034036;28;20033;-66
2022/01/01 08:25:51;;;;;;;76.88;25.17;;;11.30;99.90;;;;;;5026569;28;20389;-66
2022/01/01 08:28:17;;;;;;;61.33;24.23;;;11.40;99.90;;;;;;5016049;28;20041;-67
2022/01/01 08:30:42;;;;;;;61.25;24.13;;;11.40;99.90;;;;;;5038191;28;20041;-68
2022/01/01 08:33:08;;;;;;;67.13;25.38;;;11.40;99.90;;;;;;5034735;28;20042;-67
2022/01/01 08:35:34;;;;;;;65.50;24.73;;;11.40;99.90;;;;;;5036923;28;20033;-67
2022/01/01 08:38:03;;;;;;;59.92;24.77;;;11.40;99.90;;;;;;5051234;28;20151;-67
2022/01/01 08:40:30;;;;;;;64.60;24.05;;;11.40;99.90;;;;;;5046156;28;20528;-65
2022/01/01 08:42:56;;;;;;;63.38;24.95;;;11.40;99.90;;;;;;5037184;28;20212;-67
2022/01/01 08:45:21;;;;;;;63.08;24.80;;;11.30;99.90;;;;;;5014256;28;20243;-67
2022/01/01 08:47:47;;;;;;;72.25;26.80;;;11.40;99.90;;;;;;5038713;28;20048;-67
2022/01/01 08:50:13;;;;;;;73.72;27.02;;;11.40;99.90;;;;;;5031528;28;20048;-67
2022/01/01 08:52:40;;;;;;;73.25;27.50;;;11.30;99.90;;;;;;5041498;28;20065;-67
2022/01/01 08:55:06;;;;;;;72.57;26.23;;;11.30;99.90;;;;;;5040530;28;20033;-66
2022/01/01 08:57:32;;;;;;;75.00;27.95;;;11.40;99.90;;;;;;5044285;28;20128;-66
2022/01/01 08:59:59;;;;;;;76.50;27.55;;;11.30;99.90;;;;;;5049127;28;20131;-67
2022/01/01 09:02:25;;;;;;;79.70;28.50;;;11.40;99.90;;;;;;5033486;28;20041;-67
2022/01/01 09:04:51;;;;;;;74.38;27.88;;;11.40;99.90;;;;;;5039583;28;20045;-67
2022/01/01 09:07:17;;;;;;;84.30;28.10;;;11.40;99.90;;;;;;5034877;28;20132;-68
2022/01/01 09:09:43;;;;;;;81.75;29.70;;;11.40;99.90;;;;;;5041986;28;20126;-68
2022/01/01 09:12:09;;;;;;;86.65;29.95;;;11.40;99.90;;;;;;5064221;28;20045;-67
2022/01/01 09:14:35;;;;;;;80.38;29.77;;;11.40;99.90;;;;;;5030405;28;20053;-66
2022/01/01 09:17:02;;;;;;;79.25;29.38;;;11.40;99.90;;;;;;5014480;28;20566;-67
2022/01/01 09:19:28;;;;;;;80.22;30.98;;;11.40;99.90;;;;;;5039780;28;20037;-67
2022/01/01 09:21:54;;;;;;;67.40;30.38;;;11.50;99.90;;;;;;5030025;28;20041;-67
2022/01/01 09:24:19;;;;;;;77.97;28.58;;;11.50;99.90;;;;;;5045778;28;20244;-69
2022/01/01 09:26:45;;;;;;;75.90;30.60;;;11.50;99.90;;;;;;5037918;28;20052;-67
2022/01/01 09:29:10;;;;;;;68.75;30.40;;;11.60;99.90;;;;;;5047408;28;20044;-67
2022/01/01 09:31:38;;;;;;;76.93;30.05;;;11.60;99.90;;;;;;5049579;28;20045;-68
2022/01/01 09:34:05;;;;;;;76.38;29.83;;;11.60;99.90;;;;;;5043728;28;20061;-68
2022/01/01 09:36:31;;;;;;;70.57;28.95;;;11.60;99.90;;;;;;5036055;28;20033;-67
2022/01/01 09:38:57;;;;;;;65.03;27.95;;;11.70;99.90;;;;;;5033505;28;20073;-67
2022/01/01 09:41:23;;;;;;;67.18;28.45;;;11.70;99.90;;;;;;5034942;28;20119;-67
2022/01/01 09:43:52;;;;;;;66.88;27.95;;;11.70;99.90;;;;;;5029703;28;20481;-67
2022/01/01 09:46:18;;;;;;;63.30;26.63;;;11.70;99.90;;;;;;5030355;28;20136;-67
2022/01/01 09:48:43;;;;;;;70.82;28.40;;;11.80;99.90;;;;;;5028498;28;20049;-68
2022/01/01 09:51:09;;;;;;;57.58;27.25;;;11.80;99.90;;;;;;5047596;28;20044;-66
2022/01/01 09:53:35;;;;;;;62.75;25.80;;;11.90;99.90;;;;;;5014110;28;20049;-67
2022/01/01 09:56:02;;;;;;;61.50;25.77;;;11.90;99.90;;;;;;5042764;28;20127;-67
2022/01/01 09:58:31;;;;;;;55.53;24.13;;;11.90;99.90;;;;;;5045449;28;20041;-67
2022/01/01 10:00:57;;;;;;;58.03;24.77;;;11.90;99.90;;;;;;5030230;28;20033;-68
2022/01/01 10:03:45;;;;;;;61.20;24.67;;;12.00;99.90;;;;;;5029983;28;20511;-66
2022/01/01 10:06:13;;;;;;;56.30;23.67;;;12.00;99.90;;;;;;5042992;28;20037;-66
2022/01/01 10:08:41;;;;;;;53.63;22.77;;;12.00;99.90;;;;;;5049787;28;20044;-67
2022/01/01 10:11:08;;;;;;;52.35;23.45;;;12.00;99.90;;;;;;5050182;28;20052;-68
2022/01/01 10:13:39;;;;;;;50.17;23.67;;;12.00;99.90;;;;;;5045061;28;20045;-67
2022/01/01 10:16:07;;;;;;;51.80;22.10;;;12.10;99.90;;;;;;5029936;28;20041;-67
2022/01/01 10:18:34;;;;;;;49.22;22.52;;;12.10;99.90;;;;;;5034639;28;20029;-68
2022/01/01 10:21:09;;;;;;;44.15;21.25;;;12.00;99.90;;;;;;5051964;28;20037;-69
2022/01/01 10:23:37;;;;;;;54.15;21.65;;;12.10;99.90;;;;;;5041837;28;20033;-67
2022/01/01 10:29:26;;;;;;;49.55;20.52;;;12.10;99.90;;;;;;5011520;28;20136;-68
2022/01/01 10:31:55;;;;;;;45.78;18.52;;;12.10;99.90;;;;;;5029884;28;20468;-68
2022/01/01 10:34:25;;;;;;;42.97;20.05;;;12.10;99.90;;;;;;5031750;28;20034;-67
2022/01/01 10:36:53;;;;;;;37.90;18.20;;;12.20;99.90;;;;;;5029900;28;20049;-67
2022/01/01 10:39:19;;;;;;;37.72;17.00;;;12.10;99.90;;;;;;5028928;28;20371;-68
2022/01/01 10:41:58;;;;;;;42.70;17.42;;;12.10;99.90;;;;;;5029522;28;20095;-67
2022/01/01 10:44:34;;;;;;;37.08;16.85;;;12.10;99.90;;;;;;5037870;28;20037;-66
2022/01/01 10:47:05;;;;;;;36.92;15.10;;;12.20;99.90;;;;;;5017474;28;20095;-67
2022/01/01 10:52:19;;;;;;;42.10;16.40;;;12.20;99.90;;;;;;5049200;28;20729;-67
2022/01/01 10:54:50;;;;;;;38.60;15.48;;;12.20;99.90;;;;;;5045862;28;20093;-67
2022/01/01 10:57:35;;;;;;;36.75;14.77;;;12.20;99.90;;;;;;5033343;28;20144;-69
2022/01/01 11:00:04;;;;;;;36.20;15.15;;;12.30;99.90;;;;;;5021766;28;20037;-67
2022/01/01 11:02:32;;;;;;;31.23;14.15;;;12.30;99.90;;;;;;5037327;28;20130;-69
2022/01/01 11:04:58;;;;;;;32.67;13.15;;;12.30;99.90;;;;;;5038189;28;20049;-67
2022/01/01 11:07:27;;;;;;;29.13;12.27;;;12.40;99.90;;;;;;5048535;28;20036;-67
2022/01/01 11:09:55;;;;;;;26.60;12.35;;;12.40;99.90;;;;;;5038832;28;20041;-67
2022/01/01 11:12:22;;;;;;;27.42;12.18;;;12.40;99.90;;;;;;5029397;28;20045;-67
2022/01/01 11:14:48;;;;;;;23.85;10.73;;;12.50;99.90;;;;;;5028881;28;20100;-67
2022/01/01 11:17:15;;;;;;;26.25;11.82;;;12.50;99.90;;;;;;5020663;28;20115;-67
2022/01/01 11:19:42;;;;;;;27.02;10.65;;;12.50;99.90;;;;;;5029064;28;20055;-69
2022/01/01 11:22:09;;;;;;;22.40;9.77;;;12.50;99.90;;;;;;5035928;28;20752;-67
2022/01/01 11:24:38;;;;;;;24.42;11.63;;;12.50;99.90;;;;;;5029399;28;20045;-68
2022/01/01 11:27:05;;;;;;;26.75;11.07;;;12.60;99.90;;;;;;5013924;28;20045;-68
2022/01/01 11:29:33;;;;;;;25.05;10.32;;;12.60;99.90;;;;;;5029564;28;20041;-67
2022/01/01 11:32:00;;;;;;;22.15;9.88;;;12.60;99.90;;;;;;5029912;28;20888;-67
2022/01/01 11:34:28;;;;;;;20.40;9.88;;;12.60;99.90;;;;;;5034019;28;20125;-66
2022/01/01 11:36:54;;;;;;;19.48;8.75;;;12.60;99.90;;;;;;5029062;28;20455;-66
2022/01/01 11:39:22;;;;;;;21.58;9.73;;;12.60;99.90;;;;;;5029089;28;20041;-67
2022/01/01 11:41:47;;;;;;;24.00;10.00;;;12.50;99.90;;;;;;5044827;28;20079;-67
2022/01/01 11:44:27;;;;;;;21.52;9.35;;;12.60;99.90;;;;;;5048370;28;20072;-67
2022/01/01 11:46:59;;;;;;;20.87;9.93;;;12.50;99.90;;;;;;5028248;28;20134;-67
2022/01/01 11:49:27;;;;;;;21.73;9.55;;;12.50;99.90;;;;;;5029196;28;20045;-67
2022/01/01 11:51:54;;;;;;;19.23;8.82;;;12.50;99.90;;;;;;5044908;28;20041;-67
2022/01/01 11:54:24;;;;;;;21.75;8.00;;;12.50;99.90;;;;;;5029546;28;20047;-67
2022/01/01 11:56:50;;;;;;;21.13;8.93;;;12.50;99.90;;;;;;5033017;28;20100;-67
2022/01/01 11:59:40;;;;;;;23.17;8.43;;;12.50;99.90;;;;;;5048915;28;20497;-68
2022/01/01 12:02:30;;;;;;;18.95;8.52;;;12.50;99.90;;;;;;5031839;28;20066;-70
2022/01/01 12:05:09;;;;;;;17.50;8.32;;;12.40;99.90;;;;;;5035307;28;20044;-69
2022/01/01 12:07:47;;;;;;;20.30;8.43;;;12.40;99.90;;;;;;5019810;28;20040;-70
2022/01/01 12:10:15;;;;;;;16.55;7.78;;;12.50;99.90;;;;;;5050836;28;20125;-70
2022/01/01 12:12:59;;;;;;;18.33;7.50;;;12.40;99.90;;;;;;5039822;28;20115;-65
2022/01/01 12:15:27;;;;;;;18.17;7.47;;;12.50;99.90;;;;;;5042867;28;20148;-67
2022/01/01 12:17:57;;;;;;;18.05;7.75;;;12.50;99.90;;;;;;5030283;28;20326;-67
2022/01/01 12:20:36;;;;;;;19.38;7.85;;;12.50;99.90;;;;;;5030748;28;20142;-67
2022/01/01 12:23:11;;;;;;;15.60;7.15;;;12.50;99.90;;;;;;5045580;28;20494;-69
2022/01/01 12:25:38;;;;;;;15.55;6.90;;;12.50;99.90;;;;;;5069332;28;20391;-68
2022/01/01 12:28:10;;;;;;;21.52;7.55;;;12.40;99.90;;;;;;5038125;28;20059;-67
2022/01/01 12:30:38;;;;;;;13.23;7.35;;;12.50;99.90;;;;;;5032639;28;20045;-71
2022/01/01 12:33:04;;;;;;;20.88;7.15;;;12.50;99.90;;;;;;5024713;28;20075;-68